sensor_id;sensor_type;location;lat;lon;timestamp;P1;durP1;ratioP1;P2;durP2;ratioP2
36009;SDS011;22076;52.182;5.404;2023-04-29T00:01:10;33.70;;;19.08;;
36009;SDS011;22076;52.182;5.404;2023-04-29T00:03:36;34.63;;;17.95;;
36009;SDS011;22076;52.182;5.404;2023-04-29T00:06:04;34.22;;;18.40;;
36009;SDS011;22076;52.182;5.404;2023-04-29T00:08:31;46.00;;;22.65;;
36009;SDS011;22076;52.182;5.404;2023-04-29T00:10:57;53.35;;;24.75;;
36009;SDS011;22076;52.182;5.404;2023-04-29T00:13:24;48.03;;;23.10;;
36009;SDS011;22076;52.182;5.404;2023-04-29T00:15:51;50.60;;;23.73;;
36009;SDS011;22076;52.182;5.404;2023-04-29T00:18:17;36.50;;;20.77;;
36009;SDS011;22076;52.182;5.404;2023-04-29T00:20:44;38.67;;;19.30;;
36009;SDS011;22076;52.182;5.404;2023-04-29T00:23:12;41.28;;;18.20;;
36009;SDS011;22076;52.182;5.404;2023-04-29T00:25:38;41.80;;;22.15;;
36009;SDS011;22076;52.182;5.404;2023-04-29T00:28:05;36.97;;;19.95;;
36009;SDS011;22076;52.182;5.404;2023-04-29T00:30:31;42.35;;;22.30;;
36009;SDS011;22076;52.182;5.404;2023-04-29T00:32:58;29.45;;;16.80;;
36009;SDS011;22076;52.182;5.404;2023-04-29T00:35:25;36.83;;;18.88;;
36009;SDS011;22076;52.182;5.404;2023-04-29T00:37:51;33.10;;;16.40;;
36009;SDS011;22076;52.182;5.404;2023-04-29T00:40:19;30.98;;;16.15;;
36009;SDS011;22076;52.182;5.404;2023-04-29T00:42:46;28.27;;;14.35;;
36009;SDS011;22076;52.182;5.404;2023-04-29T00:45:12;25.42;;;13.38;;
36009;SDS011;22076;52.182;5.404;2023-04-29T00:47:38;33.72;;;17.10;;
36009;SDS011;22076;52.182;5.404;2023-04-29T00:50:07;28.17;;;16.92;;
36009;SDS011;22076;52.182;5.404;2023-04-29T00:52:34;39.30;;;20.10;;
36009;SDS011;22076;52.182;5.404;2023-04-29T00:55:00;42.72;;;19.08;;
36009;SDS011;22076;52.182;5.404;2023-04-29T00:57:29;34.63;;;18.38;;
36009;SDS011;22076;52.182;5.404;2023-04-29T00:59:55;38.55;;;19.13;;
36009;SDS011;22076;52.182;5.404;2023-04-29T01:02:22;30.15;;;15.80;;
36009;SDS011;22076;52.182;5.404;2023-04-29T01:04:49;38.00;;;19.92;;
36009;SDS011;22076;52.182;5.404;2023-04-29T01:07:16;27.60;;;15.50;;
36009;SDS011;22076;52.182;5.404;2023-04-29T01:09:49;33.80;;;16.88;;
36009;SDS011;22076;52.182;5.404;2023-04-29T01:12:20;38.40;;;18.50;;
36009;SDS011;22076;52.182;5.404;2023-04-29T01:14:53;30.77;;;15.27;;
36009;SDS011;22076;52.182;5.404;2023-04-29T01:17:26;37.03;;;19.48;;
36009;SDS011;22076;52.182;5.404;2023-04-29T01:19:56;34.33;;;16.15;;
36009;SDS011;22076;52.182;5.404;2023-04-29T01:22:24;33.80;;;18.63;;
36009;SDS011;22076;52.182;5.404;2023-04-29T01:24:52;30.08;;;15.98;;
36009;SDS011;22076;52.182;5.404;2023-04-29T01:27:22;36.60;;;20.38;;
36009;SDS011;22076;52.182;5.404;2023-04-29T01:29:55;40.53;;;19.73;;
36009;SDS011;22076;52.182;5.404;2023-04-29T01:32:28;47.33;;;22.50;;
36009;SDS011;22076;52.182;5.404;2023-04-29T01:34:59;35.90;;;18.30;;
36009;SDS011;22076;52.182;5.404;2023-04-29T01:37:32;36.85;;;18.70;;
36009;SDS011;22076;52.182;5.404;2023-04-29T01:40:09;42.08;;;20.58;;
36009;SDS011;22076;52.182;5.404;2023-04-29T01:42:38;28.58;;;15.88;;
36009;SDS011;22076;52.182;5.404;2023-04-29T01:45:10;34.20;;;17.38;;
36009;SDS011;22076;52.182;5.404;2023-04-29T01:47:41;37.08;;;19.65;;
36009;SDS011;22076;52.182;5.404;2023-04-29T01:50:08;35.15;;;17.15;;
36009;SDS011;22076;52.182;5.404;2023-04-29T01:52:35;31.08;;;17.25;;
36009;SDS011;22076;52.182;5.404;2023-04-29T01:55:02;38.75;;;20.60;;
36009;SDS011;22076;52.182;5.404;2023-04-29T01:57:31;34.80;;;18.50;;
36009;SDS011;22076;52.182;5.404;2023-04-29T01:59:58;31.58;;;16.83;;
36009;SDS011;22076;52.182;5.404;2023-04-29T02:02:26;31.63;;;19.08;;
36009;SDS011;22076;52.182;5.404;2023-04-29T02:04:52;31.85;;;17.17;;
36009;SDS011;22076;52.182;5.404;2023-04-29T02:07:19;29.45;;;14.68;;
36009;SDS011;22076;52.182;5.404;2023-04-29T02:09:46;34.33;;;17.35;;
36009;SDS011;22076;52.182;5.404;2023-04-29T02:12:13;26.75;;;14.63;;
36009;SDS011;22076;52.182;5.404;2023-04-29T02:14:40;27.70;;;14.55;;
36009;SDS011;22076;52.182;5.404;2023-04-29T02:17:07;28.50;;;15.60;;
36009;SDS011;22076;52.182;5.404;2023-04-29T02:19:33;34.35;;;17.52;;
36009;SDS011;22076;52.182;5.404;2023-04-29T02:22:00;36.28;;;15.55;;
36009;SDS011;22076;52.182;5.404;2023-04-29T02:24:27;34.72;;;16.30;;
36009;SDS011;22076;52.182;5.404;2023-04-29T02:26:53;30.48;;;15.85;;
36009;SDS011;22076;52.182;5.404;2023-04-29T02:29:20;36.13;;;16.42;;
36009;SDS011;22076;52.182;5.404;2023-04-29T02:31:48;26.58;;;14.25;;
36009;SDS011;22076;52.182;5.404;2023-04-29T02:34:14;28.45;;;14.85;;
36009;SDS011;22076;52.182;5.404;2023-04-29T02:36:41;32.92;;;16.98;;
36009;SDS011;22076;52.182;5.404;2023-04-29T02:39:07;36.08;;;17.98;;
36009;SDS011;22076;52.182;5.404;2023-04-29T02:41:34;23.38;;;13.32;;
36009;SDS011;22076;52.182;5.404;2023-04-29T02:44:00;28.75;;;15.65;;
36009;SDS011;22076;52.182;5.404;2023-04-29T02:46:27;35.05;;;17.88;;
36009;SDS011;22076;52.182;5.404;2023-04-29T02:48:55;32.92;;;16.27;;
36009;SDS011;22076;52.182;5.404;2023-04-29T02:51:21;35.85;;;18.33;;
36009;SDS011;22076;52.182;5.404;2023-04-29T02:53:48;28.40;;;14.32;;
36009;SDS011;22076;52.182;5.404;2023-04-29T02:56:14;35.75;;;16.55;;
36009;SDS011;22076;52.182;5.404;2023-04-29T02:58:41;31.27;;;16.00;;
36009;SDS011;22076;52.182;5.404;2023-04-29T03:01:07;31.58;;;14.85;;
36009;SDS011;22076;52.182;5.404;2023-04-29T03:03:34;33.67;;;17.90;;
36009;SDS011;22076;52.182;5.404;2023-04-29T03:06:02;31.52;;;16.67;;
36009;SDS011;22076;52.182;5.404;2023-04-29T03:08:28;35.03;;;18.92;;
36009;SDS011;22076;52.182;5.404;2023-04-29T03:10:55;30.75;;;16.05;;
36009;SDS011;22076;52.182;5.404;2023-04-29T03:13:21;34.97;;;18.10;;
36009;SDS011;22076;52.182;5.404;2023-04-29T03:15:48;32.30;;;17.30;;
36009;SDS011;22076;52.182;5.404;2023-04-29T03:18:14;31.45;;;18.00;;
36009;SDS011;22076;52.182;5.404;2023-04-29T03:20:41;32.30;;;15.88;;
36009;SDS011;22076;52.182;5.404;2023-04-29T03:23:08;34.80;;;19.23;;
36009;SDS011;22076;52.182;5.404;2023-04-29T03:25:35;31.17;;;17.00;;
36009;SDS011;22076;52.182;5.404;2023-04-29T03:28:02;29.73;;;16.40;;
36009;SDS011;22076;52.182;5.404;2023-04-29T03:30:28;28.50;;;16.52;;
36009;SDS011;22076;52.182;5.404;2023-04-29T03:32:55;26.35;;;14.50;;
36009;SDS011;22076;52.182;5.404;2023-04-29T03:35:21;30.85;;;17.50;;
36009;SDS011;22076;52.182;5.404;2023-04-29T03:37:48;33.88;;;17.88;;
36009;SDS011;22076;52.182;5.404;2023-04-29T03:40:16;33.22;;;19.05;;
36009;SDS011;22076;52.182;5.404;2023-04-29T03:42:43;31.38;;;16.45;;
36009;SDS011;22076;52.182;5.404;2023-04-29T03:45:10;29.40;;;16.45;;
36009;SDS011;22076;52.182;5.404;2023-04-29T03:47:38;32.30;;;17.88;;
36009;SDS011;22076;52.182;5.404;2023-04-29T03:50:05;29.77;;;17.85;;
36009;SDS011;22076;52.182;5.404;2023-04-29T03:52:33;24.48;;;13.73;;
36009;SDS011;22076;52.182;5.404;2023-04-29T03:55:00;35.75;;;17.98;;
36009;SDS011;22076;52.182;5.404;2023-04-29T03:57:28;31.05;;;16.38;;
36009;SDS011;22076;52.182;5.404;2023-04-29T03:59:55;28.13;;;15.45;;
36009;SDS011;22076;52.182;5.404;2023-04-29T04:02:21;22.40;;;14.55;;
36009;SDS011;22076;52.182;5.404;2023-04-29T04:04:48;32.20;;;17.23;;
36009;SDS011;22076;52.182;5.404;2023-04-29T04:07:14;29.95;;;16.50;;
36009;SDS011;22076;52.182;5.404;2023-04-29T04:09:41;30.73;;;17.27;;
36009;SDS011;22076;52.182;5.404;2023-04-29T04:12:07;29.00;;;16.52;;
36009;SDS011;22076;52.182;5.404;2023-04-29T04:14:35;27.70;;;15.65;;
36009;SDS011;22076;52.182;5.404;2023-04-29T04:17:02;30.10;;;17.08;;
36009;SDS011;22076;52.182;5.404;2023-04-29T04:19:29;31.15;;;17.48;;
36009;SDS011;22076;52.182;5.404;2023-04-29T04:21:56;34.30;;;18.27;;
36009;SDS011;22076;52.182;5.404;2023-04-29T04:24:23;32.20;;;15.80;;
36009;SDS011;22076;52.182;5.404;2023-04-29T04:26:49;23.70;;;13.93;;
36009;SDS011;22076;52.182;5.404;2023-04-29T04:29:16;33.17;;;17.55;;
36009;SDS011;22076;52.182;5.404;2023-04-29T04:31:44;27.77;;;15.68;;
36009;SDS011;22076;52.182;5.404;2023-04-29T04:34:10;33.40;;;17.48;;
36009;SDS011;22076;52.182;5.404;2023-04-29T04:36:37;27.88;;;16.45;;
36009;SDS011;22076;52.182;5.404;2023-04-29T04:39:03;33.33;;;17.02;;
36009;SDS011;22076;52.182;5.404;2023-04-29T04:41:30;28.40;;;16.73;;
36009;SDS011;22076;52.182;5.404;2023-04-29T04:43:56;28.63;;;16.02;;
36009;SDS011;22076;52.182;5.404;2023-04-29T04:46:23;27.35;;;15.90;;
36009;SDS011;22076;52.182;5.404;2023-04-29T04:48:51;30.90;;;15.65;;
36009;SDS011;22076;52.182;5.404;2023-04-29T04:51:17;28.40;;;16.02;;
36009;SDS011;22076;52.182;5.404;2023-04-29T04:53:44;28.63;;;15.75;;
36009;SDS011;22076;52.182;5.404;2023-04-29T04:56:11;34.90;;;18.27;;
36009;SDS011;22076;52.182;5.404;2023-04-29T04:58:37;28.80;;;15.18;;
36009;SDS011;22076;52.182;5.404;2023-04-29T05:01:04;25.73;;;14.48;;
36009;SDS011;22076;52.182;5.404;2023-04-29T05:03:31;26.38;;;16.90;;
36009;SDS011;22076;52.182;5.404;2023-04-29T05:05:59;24.35;;;15.20;;
36009;SDS011;22076;52.182;5.404;2023-04-29T05:08:26;26.48;;;15.23;;
36009;SDS011;22076;52.182;5.404;2023-04-29T05:10:52;23.90;;;14.38;;
36009;SDS011;22076;52.182;5.404;2023-04-29T05:13:19;26.42;;;15.95;;
36009;SDS011;22076;52.182;5.404;2023-04-29T05:15:45;25.45;;;13.50;;
36009;SDS011;22076;52.182;5.404;2023-04-29T05:18:12;26.88;;;13.82;;
36009;SDS011;22076;52.182;5.404;2023-04-29T05:20:38;28.33;;;17.02;;
36009;SDS011;22076;52.182;5.404;2023-04-29T05:23:07;26.17;;;16.52;;
36009;SDS011;22076;52.182;5.404;2023-04-29T05:25:34;28.98;;;15.52;;
36009;SDS011;22076;52.182;5.404;2023-04-29T05:28:01;25.20;;;14.55;;
36009;SDS011;22076;52.182;5.404;2023-04-29T05:30:27;32.75;;;17.15;;
36009;SDS011;22076;52.182;5.404;2023-04-29T05:32:54;26.15;;;15.20;;
36009;SDS011;22076;52.182;5.404;2023-04-29T05:35:21;28.75;;;15.68;;
36009;SDS011;22076;52.182;5.404;2023-04-29T05:37:47;32.38;;;16.55;;
36009;SDS011;22076;52.182;5.404;2023-04-29T05:40:15;33.33;;;18.05;;
36009;SDS011;22076;52.182;5.404;2023-04-29T05:42:42;28.95;;;18.38;;
36009;SDS011;22076;52.182;5.404;2023-04-29T05:45:09;33.80;;;16.92;;
36009;SDS011;22076;52.182;5.404;2023-04-29T05:47:36;30.45;;;16.67;;
36009;SDS011;22076;52.182;5.404;2023-04-29T05:50:03;35.38;;;18.23;;
36009;SDS011;22076;52.182;5.404;2023-04-29T05:52:30;37.95;;;20.08;;
36009;SDS011;22076;52.182;5.404;2023-04-29T05:54:57;29.67;;;15.45;;
36009;SDS011;22076;52.182;5.404;2023-04-29T05:57:24;34.58;;;17.73;;
36009;SDS011;22076;52.182;5.404;2023-04-29T05:59:51;30.10;;;16.33;;
36009;SDS011;22076;52.182;5.404;2023-04-29T06:02:19;29.15;;;16.38;;
36009;SDS011;22076;52.182;5.404;2023-04-29T06:04:45;38.63;;;17.60;;
36009;SDS011;22076;52.182;5.404;2023-04-29T06:07:12;32.50;;;19.17;;
36009;SDS011;22076;52.182;5.404;2023-04-29T06:09:39;36.25;;;19.17;;
36009;SDS011;22076;52.182;5.404;2023-04-29T06:12:06;34.95;;;18.27;;
36009;SDS011;22076;52.182;5.404;2023-04-29T06:14:34;31.27;;;15.05;;
36009;SDS011;22076;52.182;5.404;2023-04-29T06:17:01;36.42;;;18.58;;
36009;SDS011;22076;52.182;5.404;2023-04-29T06:19:28;35.38;;;18.38;;
36009;SDS011;22076;52.182;5.404;2023-04-29T06:21:56;33.58;;;15.80;;
36009;SDS011;22076;52.182;5.404;2023-04-29T06:24:24;36.03;;;15.57;;
36009;SDS011;22076;52.182;5.404;2023-04-29T06:26:50;34.10;;;15.95;;
36009;SDS011;22076;52.182;5.404;2023-04-29T06:29:17;38.47;;;17.45;;
36009;SDS011;22076;52.182;5.404;2023-04-29T06:31:45;33.47;;;17.92;;
36009;SDS011;22076;52.182;5.404;2023-04-29T06:34:12;33.15;;;18.17;;
36009;SDS011;22076;52.182;5.404;2023-04-29T06:36:38;31.92;;;16.60;;
36009;SDS011;22076;52.182;5.404;2023-04-29T06:39:07;31.98;;;15.45;;
36009;SDS011;22076;52.182;5.404;2023-04-29T06:41:34;31.35;;;15.65;;
36009;SDS011;22076;52.182;5.404;2023-04-29T06:44:00;32.42;;;16.38;;
36009;SDS011;22076;52.182;5.404;2023-04-29T06:46:27;29.67;;;16.40;;
36009;SDS011;22076;52.182;5.404;2023-04-29T06:48:55;30.65;;;15.07;;
36009;SDS011;22076;52.182;5.404;2023-04-29T06:51:22;29.40;;;14.60;;
36009;SDS011;22076;52.182;5.404;2023-04-29T06:53:49;39.53;;;18.80;;
36009;SDS011;22076;52.182;5.404;2023-04-29T06:56:15;33.78;;;15.63;;
36009;SDS011;22076;52.182;5.404;2023-04-29T06:58:42;35.15;;;17.45;;
36009;SDS011;22076;52.182;5.404;2023-04-29T07:01:08;28.02;;;14.73;;
36009;SDS011;22076;52.182;5.404;2023-04-29T07:03:35;21.25;;;11.40;;
36009;SDS011;22076;52.182;5.404;2023-04-29T07:06:03;27.77;;;14.63;;
36009;SDS011;22076;52.182;5.404;2023-04-29T07:08:30;35.38;;;16.70;;
36009;SDS011;22076;52.182;5.404;2023-04-29T07:10:58;34.88;;;15.48;;
36009;SDS011;22076;52.182;5.404;2023-04-29T07:13:24;27.88;;;14.65;;
36009;SDS011;22076;52.182;5.404;2023-04-29T07:15:51;33.00;;;14.57;;
36009;SDS011;22076;52.182;5.404;2023-04-29T07:18:18;29.20;;;13.38;;
36009;SDS011;22076;52.182;5.404;2023-04-29T07:20:44;27.65;;;14.57;;
36009;SDS011;22076;52.182;5.404;2023-04-29T07:23:13;26.40;;;13.70;;
36009;SDS011;22076;52.182;5.404;2023-04-29T07:25:39;26.10;;;12.63;;
36009;SDS011;22076;52.182;5.404;2023-04-29T07:28:06;25.42;;;13.30;;
36009;SDS011;22076;52.182;5.404;2023-04-29T07:30:33;23.95;;;13.00;;
36009;SDS011;22076;52.182;5.404;2023-04-29T07:33:00;19.98;;;11.13;;
36009;SDS011;22076;52.182;5.404;2023-04-29T07:35:28;23.48;;;11.93;;
36009;SDS011;22076;52.182;5.404;2023-04-29T07:37:55;22.20;;;11.60;;
36009;SDS011;22076;52.182;5.404;2023-04-29T07:40:23;27.70;;;11.27;;
36009;SDS011;22076;52.182;5.404;2023-04-29T07:42:50;18.73;;;11.02;;
36009;SDS011;22076;52.182;5.404;2023-04-29T07:45:16;26.05;;;10.90;;
36009;SDS011;22076;52.182;5.404;2023-04-29T07:47:43;24.95;;;11.88;;
36009;SDS011;22076;52.182;5.404;2023-04-29T07:50:09;20.88;;;10.43;;
36009;SDS011;22076;52.182;5.404;2023-04-29T07:52:36;15.90;;;9.48;;
36009;SDS011;22076;52.182;5.404;2023-04-29T07:55:03;24.90;;;12.43;;
36009;SDS011;22076;52.182;5.404;2023-04-29T07:57:31;17.98;;;10.05;;
36009;SDS011;22076;52.182;5.404;2023-04-29T07:59:58;21.95;;;11.18;;
36009;SDS011;22076;52.182;5.404;2023-04-29T08:02:24;15.52;;;9.43;;
36009;SDS011;22076;52.182;5.404;2023-04-29T08:04:51;22.33;;;10.13;;
36009;SDS011;22076;52.182;5.404;2023-04-29T08:07:19;22.15;;;10.25;;
36009;SDS011;22076;52.182;5.404;2023-04-29T08:09:46;20.10;;;10.52;;
36009;SDS011;22076;52.182;5.404;2023-04-29T08:12:12;18.88;;;10.05;;
36009;SDS011;22076;52.182;5.404;2023-04-29T08:14:40;22.42;;;10.35;;
36009;SDS011;22076;52.182;5.404;2023-04-29T08:17:07;19.33;;;9.05;;
36009;SDS011;22076;52.182;5.404;2023-04-29T08:19:33;24.08;;;9.63;;
36009;SDS011;22076;52.182;5.404;2023-04-29T08:22:00;19.02;;;9.65;;
36009;SDS011;22076;52.182;5.404;2023-04-29T08:24:28;18.92;;;9.45;;
36009;SDS011;22076;52.182;5.404;2023-04-29T08:26:55;21.38;;;10.32;;
36009;SDS011;22076;52.182;5.404;2023-04-29T08:29:22;17.38;;;10.30;;
36009;SDS011;22076;52.182;5.404;2023-04-29T08:31:50;15.55;;;8.52;;
36009;SDS011;22076;52.182;5.404;2023-04-29T08:34:17;15.90;;;9.00;;
36009;SDS011;22076;52.182;5.404;2023-04-29T08:36:43;16.83;;;8.60;;
36009;SDS011;22076;52.182;5.404;2023-04-29T08:39:10;20.13;;;8.70;;
36009;SDS011;22076;52.182;5.404;2023-04-29T08:41:36;16.58;;;8.98;;
36009;SDS011;22076;52.182;5.404;2023-04-29T08:44:03;16.80;;;9.18;;
36009;SDS011;22076;52.182;5.404;2023-04-29T08:46:31;16.23;;;8.85;;
36009;SDS011;22076;52.182;5.404;2023-04-29T08:49:00;20.70;;;9.10;;
36009;SDS011;22076;52.182;5.404;2023-04-29T08:51:28;15.35;;;8.27;;
36009;SDS011;22076;52.182;5.404;2023-04-29T08:53:56;13.35;;;8.82;;
36009;SDS011;22076;52.182;5.404;2023-04-29T08:56:22;13.32;;;8.50;;
36009;SDS011;22076;52.182;5.404;2023-04-29T08:58:49;16.27;;;8.60;;
36009;SDS011;22076;52.182;5.404;2023-04-29T09:01:18;13.75;;;8.43;;
36009;SDS011;22076;52.182;5.404;2023-04-29T09:03:46;15.00;;;8.43;;
36009;SDS011;22076;52.182;5.404;2023-04-29T09:06:18;14.02;;;8.25;;
36009;SDS011;22076;52.182;5.404;2023-04-29T09:08:45;16.90;;;8.75;;
36009;SDS011;22076;52.182;5.404;2023-04-29T09:11:12;15.23;;;8.43;;
36009;SDS011;22076;52.182;5.404;2023-04-29T09:13:39;13.20;;;7.90;;
36009;SDS011;22076;52.182;5.404;2023-04-29T09:16:09;14.30;;;8.30;;
36009;SDS011;22076;52.182;5.404;2023-04-29T09:18:42;15.27;;;8.23;;
36009;SDS011;22076;52.182;5.404;2023-04-29T09:21:18;14.13;;;7.78;;
36009;SDS011;22076;52.182;5.404;2023-04-29T09:23:46;14.73;;;8.57;;
36009;SDS011;22076;52.182;5.404;2023-04-29T09:26:14;13.43;;;7.75;;
36009;SDS011;22076;52.182;5.404;2023-04-29T09:28:41;16.00;;;8.23;;
36009;SDS011;22076;52.182;5.404;2023-04-29T09:31:09;13.70;;;6.95;;
36009;SDS011;22076;52.182;5.404;2023-04-29T09:33:48;15.00;;;7.22;;
36009;SDS011;22076;52.182;5.404;2023-04-29T09:39:09;14.60;;;7.35;;
36009;SDS011;22076;52.182;5.404;2023-04-29T09:41:56;13.00;;;7.55;;
36009;SDS011;22076;52.182;5.404;2023-04-29T09:44:25;12.98;;;7.25;;
36009;SDS011;22076;52.182;5.404;2023-04-29T09:46:56;11.43;;;7.20;;
36009;SDS011;22076;52.182;5.404;2023-04-29T09:49:23;14.10;;;7.50;;
36009;SDS011;22076;52.182;5.404;2023-04-29T09:51:55;11.98;;;6.72;;
36009;SDS011;22076;52.182;5.404;2023-04-29T09:54:24;16.48;;;7.10;;
36009;SDS011;22076;52.182;5.404;2023-04-29T09:56:53;15.07;;;7.22;;
36009;SDS011;22076;52.182;5.404;2023-04-29T09:59:21;10.88;;;5.63;;
36009;SDS011;22076;52.182;5.404;2023-04-29T10:01:49;13.45;;;7.20;;
36009;SDS011;22076;52.182;5.404;2023-04-29T10:04:16;13.02;;;6.78;;
36009;SDS011;22076;52.182;5.404;2023-04-29T10:06:44;13.27;;;6.78;;
36009;SDS011;22076;52.182;5.404;2023-04-29T10:09:14;13.13;;;7.32;;
36009;SDS011;22076;52.182;5.404;2023-04-29T10:11:42;9.27;;;6.00;;
36009;SDS011;22076;52.182;5.404;2023-04-29T10:14:10;10.65;;;6.28;;
36009;SDS011;22076;52.182;5.404;2023-04-29T10:16:38;11.00;;;6.55;;
36009;SDS011;22076;52.182;5.404;2023-04-29T10:19:11;10.70;;;6.35;;
36009;SDS011;22076;52.182;5.404;2023-04-29T10:21:40;9.38;;;6.30;;
36009;SDS011;22076;52.182;5.404;2023-04-29T10:24:07;11.90;;;6.35;;
36009;SDS011;22076;52.182;5.404;2023-04-29T10:26:37;12.32;;;6.78;;
36009;SDS011;22076;52.182;5.404;2023-04-29T10:29:04;11.15;;;6.18;;
36009;SDS011;22076;52.182;5.404;2023-04-29T10:31:34;10.27;;;5.22;;
36009;SDS011;22076;52.182;5.404;2023-04-29T10:34:01;8.57;;;6.13;;
36009;SDS011;22076;52.182;5.404;2023-04-29T10:36:28;10.75;;;5.95;;
36009;SDS011;22076;52.182;5.404;2023-04-29T10:38:56;10.43;;;6.53;;
36009;SDS011;22076;52.182;5.404;2023-04-29T10:41:25;10.75;;;5.32;;
36009;SDS011;22076;52.182;5.404;2023-04-29T10:43:54;9.25;;;4.90;;
36009;SDS011;22076;52.182;5.404;2023-04-29T10:46:21;12.73;;;5.68;;
36009;SDS011;22076;52.182;5.404;2023-04-29T10:48:51;11.73;;;5.90;;
36009;SDS011;22076;52.182;5.404;2023-04-29T10:53:57;8.10;;;5.50;;
36009;SDS011;22076;52.182;5.404;2023-04-29T10:56:37;7.90;;;5.82;;
36009;SDS011;22076;52.182;5.404;2023-04-29T10:59:09;9.02;;;5.65;;
36009;SDS011;22076;52.182;5.404;2023-04-29T11:01:42;9.95;;;5.15;;
36009;SDS011;22076;52.182;5.404;2023-04-29T11:04:09;7.78;;;4.88;;
36009;SDS011;22076;52.182;5.404;2023-04-29T11:06:37;9.35;;;5.78;;
36009;SDS011;22076;52.182;5.404;2023-04-29T11:09:07;10.15;;;5.88;;
36009;SDS011;22076;52.182;5.404;2023-04-29T11:11:45;7.45;;;5.45;;
36009;SDS011;22076;52.182;5.404;2023-04-29T11:14:18;8.80;;;6.20;;
36009;SDS011;22076;52.182;5.404;2023-04-29T11:16:47;9.00;;;6.25;;
36009;SDS011;22076;52.182;5.404;2023-04-29T11:19:14;10.30;;;5.95;;
36009;SDS011;22076;52.182;5.404;2023-04-29T11:21:41;9.90;;;5.55;;
36009;SDS011;22076;52.182;5.404;2023-04-29T11:24:10;8.75;;;5.43;;
36009;SDS011;22076;52.182;5.404;2023-04-29T11:26:37;11.50;;;6.03;;
36009;SDS011;22076;52.182;5.404;2023-04-29T11:29:03;11.43;;;6.68;;
36009;SDS011;22076;52.182;5.404;2023-04-29T11:31:33;11.60;;;6.60;;
36009;SDS011;22076;52.182;5.404;2023-04-29T11:34:00;9.20;;;4.95;;
36009;SDS011;22076;52.182;5.404;2023-04-29T11:36:30;11.68;;;6.85;;
36009;SDS011;22076;52.182;5.404;2023-04-29T11:38:58;8.88;;;5.45;;
36009;SDS011;22076;52.182;5.404;2023-04-29T11:41:25;11.40;;;6.88;;
36009;SDS011;22076;52.182;5.404;2023-04-29T11:43:54;8.40;;;4.10;;
36009;SDS011;22076;52.182;5.404;2023-04-29T11:46:21;11.52;;;6.13;;
36009;SDS011;22076;52.182;5.404;2023-04-29T11:48:49;8.82;;;5.13;;
36009;SDS011;22076;52.182;5.404;2023-04-29T11:51:17;11.75;;;6.55;;
36009;SDS011;22076;52.182;5.404;2023-04-29T11:53:44;10.65;;;6.03;;
36009;SDS011;22076;52.182;5.404;2023-04-29T11:56:11;9.52;;;5.80;;
36009;SDS011;22076;52.182;5.404;2023-04-29T11:58:38;10.50;;;5.28;;
36009;SDS011;22076;52.182;5.404;2023-04-29T12:01:04;9.45;;;4.85;;
36009;SDS011;22076;52.182;5.404;2023-04-29T12:03:31;13.43;;;6.15;;
36009;SDS011;22076;52.182;5.404;2023-04-29T12:06:00;12.98;;;7.85;;
36009;SDS011;22076;52.182;5.404;2023-04-29T12:08:27;11.52;;;6.00;;
36009;SDS011;22076;52.182;5.404;2023-04-29T12:10:55;8.38;;;4.97;;
36009;SDS011;22076;52.182;5.404;2023-04-29T12:13:23;9.13;;;5.78;;
36009;SDS011;22076;52.182;5.404;2023-04-29T12:15:51;9.52;;;6.18;;
36009;SDS011;22076;52.182;5.404;2023-04-29T12:18:18;10.02;;;5.32;;
36009;SDS011;22076;52.182;5.404;2023-04-29T12:20:47;8.70;;;5.28;;
36009;SDS011;22076;52.182;5.404;2023-04-29T12:23:17;12.38;;;6.13;;
36009;SDS011;22076;52.182;5.404;2023-04-29T12:25:47;9.07;;;5.43;;
36009;SDS011;22076;52.182;5.404;2023-04-29T12:28:15;8.95;;;5.68;;
36009;SDS011;22076;52.182;5.404;2023-04-29T12:30:42;14.30;;;5.38;;
36009;SDS011;22076;52.182;5.404;2023-04-29T12:33:10;9.20;;;5.97;;
36009;SDS011;22076;52.182;5.404;2023-04-29T12:35:41;7.53;;;4.67;;
36009;SDS011;22076;52.182;5.404;2023-04-29T12:38:07;12.05;;;5.90;;
36009;SDS011;22076;52.182;5.404;2023-04-29T12:40:36;9.40;;;5.93;;
36009;SDS011;22076;52.182;5.404;2023-04-29T12:43:06;7.45;;;5.15;;
36009;SDS011;22076;52.182;5.404;2023-04-29T12:45:33;11.85;;;6.25;;
36009;SDS011;22076;52.182;5.404;2023-04-29T12:48:00;8.70;;;5.05;;
36009;SDS011;22076;52.182;5.404;2023-04-29T12:50:29;11.27;;;6.30;;
36009;SDS011;22076;52.182;5.404;2023-04-29T12:52:58;8.73;;;4.78;;
36009;SDS011;22076;52.182;5.404;2023-04-29T12:55:24;8.93;;;5.10;;
36009;SDS011;22076;52.182;5.404;2023-04-29T12:57:52;10.30;;;5.93;;
36009;SDS011;22076;52.182;5.404;2023-04-29T13:00:20;9.40;;;4.95;;
36009;SDS011;22076;52.182;5.404;2023-04-29T13:02:47;11.52;;;5.57;;
36009;SDS011;22076;52.182;5.404;2023-04-29T13:05:13;6.95;;;4.78;;
36009;SDS011;22076;52.182;5.404;2023-04-29T13:07:40;7.68;;;4.60;;
36009;SDS011;22076;52.182;5.404;2023-04-29T13:10:07;8.52;;;4.80;;
36009;SDS011;22076;52.182;5.404;2023-04-29T13:12:36;6.45;;;4.38;;
36009;SDS011;22076;52.182;5.404;2023-04-29T13:15:04;7.35;;;5.07;;
36009;SDS011;22076;52.182;5.404;2023-04-29T13:17:31;8.63;;;5.30;;
36009;SDS011;22076;52.182;5.404;2023-04-29T13:19:58;8.75;;;5.70;;
36009;SDS011;22076;52.182;5.404;2023-04-29T13:22:25;7.28;;;3.80;;
36009;SDS011;22076;52.182;5.404;2023-04-29T13:24:51;12.85;;;5.50;;
36009;SDS011;22076;52.182;5.404;2023-04-29T13:27:18;11.07;;;5.38;;
36009;SDS011;22076;52.182;5.404;2023-04-29T13:29:45;9.00;;;5.70;;
36009;SDS011;22076;52.182;5.404;2023-04-29T13:32:12;8.73;;;5.57;;
36009;SDS011;22076;52.182;5.404;2023-04-29T13:34:40;10.77;;;5.40;;
36009;SDS011;22076;52.182;5.404;2023-04-29T13:37:09;9.95;;;5.32;;
36009;SDS011;22076;52.182;5.404;2023-04-29T13:39:35;11.85;;;6.13;;
36009;SDS011;22076;52.182;5.404;2023-04-29T13:42:02;10.68;;;5.72;;
36009;SDS011;22076;52.182;5.404;2023-04-29T13:44:29;11.35;;;5.80;;
36009;SDS011;22076;52.182;5.404;2023-04-29T13:46:55;10.80;;;5.45;;
36009;SDS011;22076;52.182;5.404;2023-04-29T13:49:23;8.93;;;5.28;;
36009;SDS011;22076;52.182;5.404;2023-04-29T13:51:51;7.97;;;5.60;;
36009;SDS011;22076;52.182;5.404;2023-04-29T13:54:17;9.52;;;5.28;;
36009;SDS011;22076;52.182;5.404;2023-04-29T13:56:45;8.82;;;5.38;;
36009;SDS011;22076;52.182;5.404;2023-04-29T13:59:11;10.80;;;5.28;;
36009;SDS011;22076;52.182;5.404;2023-04-29T14:01:38;7.82;;;5.03;;
36009;SDS011;22076;52.182;5.404;2023-04-29T14:04:04;10.30;;;5.85;;
36009;SDS011;22076;52.182;5.404;2023-04-29T14:06:32;13.10;;;5.95;;
36009;SDS011;22076;52.182;5.404;2023-04-29T14:08:59;10.00;;;6.05;;
36009;SDS011;22076;52.182;5.404;2023-04-29T14:11:25;7.20;;;5.55;;
36009;SDS011;22076;52.182;5.404;2023-04-29T14:13:54;6.95;;;5.07;;
36009;SDS011;22076;52.182;5.404;2023-04-29T14:16:21;6.90;;;4.18;;
36009;SDS011;22076;52.182;5.404;2023-04-29T14:18:48;10.02;;;5.47;;
36009;SDS011;22076;52.182;5.404;2023-04-29T14:21:15;5.90;;;3.88;;
36009;SDS011;22076;52.182;5.404;2023-04-29T14:23:43;7.50;;;4.60;;
36009;SDS011;22076;52.182;5.404;2023-04-29T14:26:10;9.68;;;5.10;;
36009;SDS011;22076;52.182;5.404;2023-04-29T14:28:36;6.63;;;4.80;;
36009;SDS011;22076;52.182;5.404;2023-04-29T14:31:03;5.57;;;3.97;;
36009;SDS011;22076;52.182;5.404;2023-04-29T14:33:29;8.65;;;4.32;;
36009;SDS011;22076;52.182;5.404;2023-04-29T14:35:57;8.30;;;4.45;;